createdAt,value
2023-02-08T00:00:39.073Z,4.50
2023-02-08T00:05:59.120Z,5.00
2023-02-08T00:11:01.882Z,5.40
2023-02-08T00:16:04.820Z,6.40
2023-02-08T00:21:13.014Z,6.00
2023-02-08T00:26:16.015Z,6.50
2023-02-08T00:31:18.699Z,6.00
2023-02-08T00:36:21.436Z,6.60
2023-02-08T00:41:24.042Z,7.30
2023-02-08T00:46:26.864Z,6.90
2023-02-08T00:51:29.690Z,7.70
2023-02-08T00:56:32.375Z,6.00
2023-02-08T01:01:35.803Z,5.90
2023-02-08T01:06:39.064Z,7.10
2023-02-08T01:11:42.165Z,6.90
2023-02-08T01:16:44.752Z,5.90
2023-02-08T01:21:49.130Z,6.10
2023-02-08T01:26:52.033Z,7.30
2023-02-08T01:31:54.643Z,4.70
2023-02-08T01:36:57.712Z,8.10
2023-02-08T01:42:00.568Z,6.40
2023-02-08T01:47:03.690Z,6.00
2023-02-08T01:52:12.042Z,6.40
2023-02-08T01:57:15.142Z,7.40
2023-02-08T02:02:21.584Z,6.40
2023-02-08T02:07:28.723Z,7.60
2023-02-08T02:12:33.214Z,7.60
2023-02-08T02:17:38.508Z,7.20
2023-02-08T02:22:59.827Z,5.40
2023-02-08T02:28:10.839Z,9.10
2023-02-08T02:33:48.899Z,6.50
2023-02-08T02:39:02.794Z,8.00
2023-02-08T02:44:14.566Z,6.90
2023-02-08T02:49:17.094Z,7.50
2023-02-08T02:54:39.841Z,8.90
2023-02-08T02:59:45.224Z,8.70
2023-02-08T03:04:51.393Z,6.80
2023-02-08T03:10:00.120Z,6.80
2023-02-08T03:15:27.806Z,6.00
2023-02-08T03:20:41.241Z,10.20
2023-02-08T03:25:50.334Z,8.20
2023-02-08T03:31:15.265Z,7.30
2023-02-08T03:36:27.143Z,6.50
2023-02-08T03:41:34.928Z,7.40
2023-02-08T03:46:57.487Z,6.70
2023-02-08T03:52:03.341Z,9.40
2023-02-08T03:57:14.062Z,9.80
2023-02-08T04:02:21.162Z,8.60
2023-02-08T04:07:24.372Z,9.20
2023-02-08T04:12:27.889Z,7.50
2023-02-08T04:17:30.491Z,6.90
2023-02-08T04:22:33.630Z,7.60
2023-02-08T04:27:36.237Z,8.70
2023-02-08T04:32:39.067Z,8.20
2023-02-08T04:37:41.628Z,8.90
2023-02-08T04:42:44.517Z,7.90
2023-02-08T04:47:47.082Z,5.30
2023-02-08T04:52:49.789Z,6.00
2023-02-08T04:57:52.468Z,8.80
2023-02-08T05:02:57.109Z,8.90
2023-02-08T05:08:01.017Z,7.50
2023-02-08T05:13:04.005Z,7.30
2023-02-08T05:18:06.773Z,6.10
2023-02-08T05:23:09.392Z,7.90
2023-02-08T05:28:12.004Z,8.60
2023-02-08T05:33:15.059Z,7.60
2023-02-08T05:38:17.621Z,7.20
2023-02-08T05:43:20.194Z,6.60
2023-02-08T05:48:23.053Z,7.40
2023-02-08T05:53:25.622Z,8.70
2023-02-08T05:58:28.336Z,9.80
2023-02-08T06:03:31.014Z,8.70
2023-02-08T06:08:33.958Z,9.30
2023-02-08T06:13:36.718Z,13.10
2023-02-08T06:18:39.354Z,13.00
2023-02-08T06:23:42.465Z,13.90
2023-02-08T06:28:44.993Z,11.50
2023-02-08T06:33:47.597Z,11.10
2023-02-08T06:38:51.316Z,8.50
2023-02-08T06:43:54.172Z,9.10
2023-02-08T06:48:58.007Z,8.30
2023-02-08T06:54:00.561Z,6.50
2023-02-08T06:59:03.710Z,8.70
2023-02-08T07:04:07.121Z,9.70
2023-02-08T07:09:09.721Z,9.10
2023-02-08T07:14:14.512Z,8.60
2023-02-08T07:19:17.128Z,9.50
2023-02-08T07:24:19.838Z,10.20
2023-02-08T07:29:22.444Z,9.90
2023-02-08T07:34:25.316Z,9.70
2023-02-08T07:39:28.001Z,9.70
2023-02-08T07:44:30.592Z,9.20
2023-02-08T07:49:33.642Z,9.30
2023-02-08T07:54:36.378Z,12.00
2023-02-08T07:59:39.236Z,11.90
2023-02-08T08:04:42.470Z,13.30
2023-02-08T08:09:45.052Z,12.60
2023-02-08T08:14:48.100Z,9.10
2023-02-08T08:19:51.732Z,11.90
2023-02-08T08:24:54.788Z,10.70
2023-02-08T08:29:59.002Z,12.60
2023-02-08T08:35:02.728Z,10.50
2023-02-08T08:40:06.938Z,11.80
2023-02-08T08:45:10.422Z,7.70
2023-02-08T08:50:13.033Z,11.60
2023-02-08T08:55:15.703Z,12.30
2023-02-08T09:00:19.240Z,10.20
2023-02-08T09:05:21.894Z,11.90
2023-02-08T09:10:24.464Z,11.20
2023-02-08T09:15:27.219Z,9.70
2023-02-08T09:20:29.815Z,8.00
2023-02-08T09:25:33.286Z,11.30
2023-02-08T09:30:35.996Z,12.70
2023-02-08T09:35:38.553Z,9.70
2023-02-08T09:41:12.953Z,11.80
2023-02-08T09:46:24.478Z,13.00
2023-02-08T09:51:51.125Z,13.80
2023-02-08T09:56:54.352Z,15.40
2023-02-08T10:02:04.395Z,10.50
2023-02-08T10:07:11.206Z,12.00
2023-02-08T10:12:13.770Z,10.30
2023-02-08T10:17:25.358Z,14.00
2023-02-08T10:22:34.684Z,13.70
2023-02-08T10:27:50.988Z,11.10
2023-02-08T10:33:02.445Z,14.10
2023-02-08T10:38:24.978Z,7.50
2023-02-08T10:43:36.535Z,11.50
2023-02-08T10:48:55.244Z,13.50
2023-02-08T10:53:58.013Z,14.00
2023-02-08T10:59:04.821Z,10.50
2023-02-08T11:04:11.262Z,15.90
2023-02-08T11:09:31.238Z,15.20
2023-02-08T11:14:46.588Z,13.00
2023-02-08T11:19:50.685Z,15.80
2023-02-08T11:24:59.301Z,14.70
2023-02-08T11:30:23.493Z,12.70
2023-02-08T11:35:29.412Z,14.80
2023-02-08T11:40:36.288Z,13.40
2023-02-08T11:45:39.222Z,14.20
2023-02-08T11:50:41.874Z,12.10
2023-02-08T11:55:44.884Z,10.50
2023-02-08T12:01:24.890Z,12.00
2023-02-08T12:06:43.461Z,13.50
2023-02-08T12:11:56.690Z,13.10
2023-02-08T12:17:02.293Z,10.90
2023-02-08T12:22:12.152Z,12.50
2023-02-08T12:27:43.815Z,12.00
2023-02-08T12:33:18.256Z,9.70
2023-02-08T12:39:10.378Z,10.00
2023-02-08T12:44:28.521Z,9.00
2023-02-08T12:49:31.192Z,9.60
2023-02-08T12:54:42.316Z,11.80
2023-02-08T12:59:53.521Z,11.20
2023-02-08T13:05:00.122Z,10.20
2023-02-08T13:10:49.548Z,9.40
2023-02-08T13:15:58.657Z,8.80
2023-02-08T13:21:15.824Z,9.90
2023-02-08T13:26:31.771Z,11.20
2023-02-08T13:31:41.340Z,10.60
2023-02-08T13:36:56.033Z,9.60
2023-02-08T13:41:59.433Z,11.00
2023-02-08T13:47:03.213Z,9.10
2023-02-08T13:52:08.308Z,7.10
2023-02-08T13:57:42.835Z,7.90
2023-02-08T14:03:19.356Z,6.90
2023-02-08T14:08:31.234Z,7.80
2023-02-08T14:13:45.902Z,7.50
2023-02-08T14:18:54.704Z,7.00
2023-02-08T14:24:04.521Z,7.40
2023-02-08T14:29:07.625Z,8.70
2023-02-08T14:34:40.958Z,5.80
2023-02-08T14:39:44.308Z,6.80
2023-02-08T14:44:57.851Z,5.20
2023-02-08T14:50:18.676Z,8.80
2023-02-08T14:55:30.482Z,7.80
2023-02-08T15:00:36.476Z,9.40
2023-02-08T15:05:48.733Z,7.00
2023-02-08T15:10:51.621Z,8.30
2023-02-08T15:15:57.500Z,8.70
2023-02-08T15:21:04.864Z,8.20
2023-02-08T15:26:26.864Z,8.40
2023-02-08T15:31:33.878Z,6.70
2023-02-08T15:36:38.086Z,7.90
2023-02-08T15:41:40.896Z,9.20
2023-02-08T15:46:47.307Z,11.50
2023-02-08T15:51:50.955Z,10.90
2023-02-08T15:57:24.569Z,11.40
2023-02-08T16:02:32.419Z,9.10
2023-02-08T16:07:39.556Z,9.80
2023-02-08T16:12:44.682Z,8.50
2023-02-08T16:17:48.780Z,8.80
2023-02-08T16:23:01.075Z,9.70
2023-02-08T16:28:05.894Z,11.30
2023-02-08T16:33:09.152Z,8.70
2023-02-08T16:38:21.239Z,8.60
2023-02-08T16:43:27.112Z,7.50
2023-02-08T16:48:34.969Z,11.20
2023-02-08T16:53:42.212Z,12.20
2023-02-08T16:58:45.449Z,11.00
2023-02-08T17:03:50.255Z,16.30
2023-02-08T17:08:53.141Z,12.40
2023-02-08T17:13:55.972Z,9.50
2023-02-08T17:19:01.166Z,12.20
2023-02-08T17:24:04.312Z,10.20
2023-02-08T17:29:07.689Z,11.70
2023-02-08T17:34:10.313Z,8.40
2023-02-08T17:39:15.224Z,18.00
2023-02-08T17:44:19.180Z,17.60
2023-02-08T17:49:22.251Z,14.70
2023-02-08T17:54:24.868Z,11.10
2023-02-08T17:59:27.461Z,15.50
2023-02-08T18:04:30.130Z,11.70
2023-02-08T18:09:33.310Z,13.70
2023-02-08T18:14:38.486Z,10.10
2023-02-08T18:19:41.141Z,10.40
2023-02-08T18:24:43.806Z,20.40
2023-02-08T18:29:46.450Z,11.60
2023-02-08T18:34:49.846Z,9.90
2023-02-08T18:39:52.557Z,12.90
2023-02-08T18:44:55.594Z,10.40
2023-02-08T18:49:58.252Z,8.80
2023-02-08T18:55:01.248Z,12.10
2023-02-08T19:00:04.594Z,14.60
2023-02-08T19:05:07.506Z,12.50
2023-02-08T19:10:10.691Z,9.70
2023-02-08T19:15:13.268Z,11.60
2023-02-08T19:20:15.989Z,9.40
2023-02-08T19:25:18.631Z,9.60
2023-02-08T19:30:21.833Z,8.60
2023-02-08T19:35:24.697Z,15.60
2023-02-08T19:40:27.857Z,17.20
2023-02-08T19:45:30.573Z,10.90
2023-02-08T19:50:33.208Z,10.70
2023-02-08T19:55:36.885Z,10.10
2023-02-08T20:00:41.733Z,11.20
2023-02-08T20:05:46.296Z,12.00
2023-02-08T20:10:49.270Z,19.30
2023-02-08T20:15:59.951Z,19.60
2023-02-08T20:21:04.432Z,19.50
2023-02-08T20:26:11.693Z,17.30
2023-02-08T20:31:18.019Z,10.90
2023-02-08T20:36:23.661Z,8.20
2023-02-08T20:41:28.143Z,13.20
2023-02-08T20:46:34.681Z,12.60
2023-02-08T20:51:37.388Z,9.50
2023-02-08T20:56:40.076Z,6.20
2023-02-08T21:01:44.554Z,6.30
2023-02-08T21:06:47.243Z,8.50
2023-02-08T21:11:51.381Z,9.60
2023-02-08T21:16:56.596Z,7.00
2023-02-08T21:22:01.580Z,9.90
2023-02-08T21:27:04.446Z,9.20
2023-02-08T21:32:08.426Z,10.00
2023-02-08T21:37:11.153Z,8.20
2023-02-08T21:42:13.865Z,8.20
2023-02-08T21:47:16.595Z,4.70
2023-02-08T21:52:35.249Z,6.30
2023-02-08T21:57:40.858Z,5.40
2023-02-08T22:02:43.596Z,6.00
2023-02-08T22:07:55.334Z,11.40
2023-02-08T22:12:58.762Z,9.30
2023-02-08T22:18:03.276Z,6.80
2023-02-08T22:23:06.129Z,5.30
2023-02-08T22:28:09.233Z,6.90
2023-02-08T22:33:11.907Z,4.70
2023-02-08T22:38:14.561Z,6.10
2023-02-08T22:43:20.373Z,11.10
2023-02-08T22:48:22.934Z,8.80
2023-02-08T22:53:26.619Z,7.20
2023-02-08T22:58:29.550Z,5.90
2023-02-08T23:03:32.208Z,8.60
2023-02-08T23:08:35.955Z,9.20
2023-02-08T23:13:38.579Z,6.80
2023-02-08T23:18:41.899Z,8.20
2023-02-08T23:23:46.786Z,11.90
2023-02-08T23:28:51.477Z,10.50
2023-02-08T23:33:54.365Z,8.80
2023-02-08T23:38:57.265Z,7.20
2023-02-08T23:43:59.860Z,13.30
2023-02-08T23:49:02.480Z,8.50
2023-02-08T23:54:05.568Z,9.40
2023-02-08T23:59:10.747Z,6.00
